Αρχική σελίδα
METAR-TAF:

METAR-TAF

Αεροδρόμια :

Ομάχα, Νεμπράσκα, Ηνωμένες Πολιτείες Αμερικής

γεωγραφικό πλάτος: 41-11-45N, γεωγραφικό μήκος: 096-06-44W, υψόμετρο: 320 μ

Παρών καιρός

Η αναφορά έγινε 24 λεπτά πριν, στις 18:15 UTC
Άνεμος 4 kt από Β/BA
Θερμοκρασία -11°C
Υγρασία 61%
Πίεση 1021 hPa
Ορατότητα: 16.1 χλμ
Αρκετά νέφη σε ύψος 4700 πόδια
Νεφοσκεπής σε ύψος 5500 πόδια

METAR: KMLE 151815Z AUTO 02004KT 10SM BKN047 OVC055 M11/M17 A3015 RMK AO2 T11131167

Χρόνος: 12:39 (18:39 UTC)


TAF: λείπει

Μετεωρολογικές αναφορές και προγνώσεις για περισσότερα από 4000 αεροδρόμια (δελτία METAR και TAF).

Οι διαθέσιμοι σταθμοί απεικονίζονται στο χάρτη με κίτρινες και κόκκινες κουκκίδες.

Μετακινήστε το ποντίκι πάνω από τις κουκκίδες για να δείτε το όνομα του σταθμού.

Στη συνέχεια, κάντε κλικ για να δείτε τις μετεωρολογικές αναφορές και τις προγνώσεις καιρού.

Για να αλλάξετε το χάρτη: κάντε κλικ στα πράσινα κουμπιά με τον μαύρο σταυρό για να ζουμάρετε, στο πράσινο κουμπί με την παύλα για να αφαιρέσετε το ζουμ ή στα πράσινα βέλη για να αντιπαραβάλλετε χάρτες.


METAR-TAF: